createdAt,value
2024-01-05T00:01:54.091Z,88.48
2024-01-05T00:04:20.485Z,88.48
2024-01-05T00:06:47.579Z,88.72
2024-01-05T00:09:14.132Z,88.23
2024-01-05T00:11:40.868Z,89.08
2024-01-05T00:14:07.844Z,87.26
2024-01-05T00:16:34.388Z,87.83
2024-01-05T00:19:00.999Z,89.01
2024-01-05T00:21:28.345Z,89.05
2024-01-05T00:23:55.959Z,88.31
2024-01-05T00:26:22.599Z,88.59
2024-01-05T00:28:50.276Z,88.09
2024-01-05T00:31:16.959Z,89.06
2024-01-05T00:33:44.637Z,88.55
2024-01-05T00:36:11.277Z,89.02
2024-01-05T00:38:38.025Z,88.82
2024-01-05T00:41:05.076Z,89.01
2024-01-05T00:43:32.093Z,88.07
2024-01-05T00:45:58.880Z,89.02
2024-01-05T00:48:25.747Z,89.72
2024-01-05T00:50:52.215Z,89.56
2024-01-05T00:53:19.012Z,88.85
2024-01-05T00:55:45.658Z,88.89
2024-01-05T00:58:12.373Z,89.12
2024-01-05T01:00:38.842Z,89.60
2024-01-05T01:03:05.395Z,89.46
2024-01-05T01:05:31.903Z,87.48
2024-01-05T01:07:58.591Z,88.08
2024-01-05T01:10:25.428Z,88.20
2024-01-05T01:12:51.752Z,87.68
2024-01-05T01:15:18.525Z,87.74
2024-01-05T01:17:45.659Z,88.32
2024-01-05T01:20:12.378Z,87.70
2024-01-05T01:22:38.820Z,88.26
2024-01-05T01:25:05.699Z,87.99
2024-01-05T01:27:32.260Z,86.94
2024-01-05T01:29:59.251Z,88.20
2024-01-05T01:32:25.630Z,87.35
2024-01-05T01:34:52.088Z,86.91
2024-01-05T01:37:18.840Z,87.73
2024-01-05T01:39:45.240Z,88.91
2024-01-05T01:42:12.070Z,88.71
2024-01-05T01:44:38.935Z,86.96
2024-01-05T01:47:05.446Z,86.84
2024-01-05T01:49:32.437Z,88.38
2024-01-05T01:51:58.868Z,88.52
2024-01-05T01:54:25.871Z,88.82
2024-01-05T01:56:52.522Z,88.10
2024-01-05T01:59:18.881Z,88.54
2024-01-05T02:01:45.988Z,88.03
2024-01-05T02:04:16.035Z,88.57
2024-01-05T02:06:45.120Z,88.38
2024-01-05T02:09:11.667Z,89.29
2024-01-05T02:11:38.446Z,88.66
2024-01-05T02:14:04.754Z,89.07
2024-01-05T02:16:31.508Z,88.73
2024-01-05T02:18:57.884Z,88.94
2024-01-05T02:21:25.395Z,90.14
2024-01-05T02:23:52.576Z,89.25
2024-01-05T02:26:18.904Z,89.47
2024-01-05T02:28:45.180Z,89.73
2024-01-05T02:31:11.858Z,89.59
2024-01-05T02:33:39.255Z,90.06
2024-01-05T02:36:06.032Z,89.33
2024-01-05T02:38:32.384Z,89.83
2024-01-05T02:40:59.771Z,89.13
2024-01-05T02:43:26.293Z,89.81
2024-01-05T02:45:52.624Z,88.92
2024-01-05T02:48:19.143Z,88.90
2024-01-05T02:50:45.563Z,89.91
2024-01-05T02:53:12.329Z,89.66
2024-01-05T02:55:38.656Z,89.44
2024-01-05T02:58:05.081Z,88.71
2024-01-05T03:00:32.017Z,90.30
2024-01-05T03:02:58.471Z,89.34
2024-01-05T03:05:24.865Z,89.88
2024-01-05T03:07:51.900Z,89.95
2024-01-05T03:10:18.505Z,90.02
2024-01-05T03:12:44.785Z,90.16
2024-01-05T03:15:11.367Z,89.75
2024-01-05T03:17:37.769Z,88.89
2024-01-05T03:20:04.479Z,89.02
2024-01-05T03:22:32.386Z,89.63
2024-01-05T03:24:58.897Z,90.26
2024-01-05T03:27:25.274Z,89.79
2024-01-05T03:29:51.652Z,88.96
2024-01-05T03:32:18.056Z,89.74
2024-01-05T03:34:44.489Z,89.50
2024-01-05T03:37:10.763Z,89.04
2024-01-05T03:39:37.090Z,89.08
2024-01-05T03:42:03.760Z,89.13
2024-01-05T03:44:30.487Z,89.77
2024-01-05T03:46:57.260Z,89.23
2024-01-05T03:49:23.782Z,89.63
2024-01-05T03:51:50.500Z,88.86
2024-01-05T03:54:17.301Z,89.03
2024-01-05T03:56:47.178Z,88.77
2024-01-05T03:59:14.176Z,89.38
2024-01-05T04:01:45.208Z,87.95
2024-01-05T04:04:11.688Z,89.11
2024-01-05T04:06:38.405Z,89.12
2024-01-05T04:09:05.173Z,88.87
2024-01-05T04:11:32.203Z,88.87
2024-01-05T04:13:58.749Z,90.10
2024-01-05T04:16:25.418Z,90.47
2024-01-05T04:18:52.151Z,88.96
2024-01-05T04:21:19.004Z,87.74
2024-01-05T04:23:45.354Z,88.09
2024-01-05T04:26:11.666Z,88.90
2024-01-05T04:28:38.377Z,89.05
2024-01-05T04:31:04.856Z,88.76
2024-01-05T04:33:31.824Z,88.41
2024-01-05T04:35:58.173Z,88.66
2024-01-05T04:38:24.481Z,88.18
2024-01-05T04:40:50.885Z,88.56
2024-01-05T04:43:17.232Z,88.74
2024-01-05T04:45:43.881Z,87.63
2024-01-05T04:48:10.875Z,88.26
2024-01-05T04:50:37.244Z,88.48
2024-01-05T04:53:03.866Z,87.29
2024-01-05T04:55:30.199Z,88.46
2024-01-05T04:57:57.984Z,88.72
2024-01-05T05:00:24.368Z,88.94
2024-01-05T05:02:51.187Z,89.27
2024-01-05T05:05:17.999Z,88.10
2024-01-05T05:07:44.730Z,87.50
2024-01-05T05:10:11.086Z,88.10
2024-01-05T05:12:38.468Z,88.48
2024-01-05T05:15:05.099Z,87.71
2024-01-05T05:17:31.870Z,87.44
2024-01-05T05:19:58.583Z,87.60
2024-01-05T05:22:24.964Z,88.99
2024-01-05T05:24:56.131Z,89.08
2024-01-05T05:27:22.474Z,88.04
2024-01-05T05:29:48.867Z,88.55
2024-01-05T05:32:15.657Z,87.53
2024-01-05T05:34:42.936Z,88.70
2024-01-05T05:37:09.279Z,87.77
2024-01-05T05:39:35.990Z,88.23
2024-01-05T05:42:02.740Z,88.74
2024-01-05T05:44:29.388Z,88.83
2024-01-05T05:46:55.811Z,88.75
2024-01-05T05:49:22.428Z,88.41
2024-01-05T05:51:48.934Z,88.91
2024-01-05T05:54:16.529Z,89.01
2024-01-05T05:56:42.881Z,88.60
2024-01-05T05:59:09.545Z,88.36
2024-01-05T06:01:35.887Z,89.13
2024-01-05T06:04:02.313Z,87.90
2024-01-05T06:06:28.970Z,88.91
2024-01-05T06:08:56.330Z,88.78
2024-01-05T06:11:23.190Z,87.59
2024-01-05T06:13:49.470Z,87.54
2024-01-05T06:16:15.780Z,88.72
2024-01-05T06:18:43.209Z,89.34
2024-01-05T06:21:09.972Z,88.26
2024-01-05T06:23:36.433Z,87.58
2024-01-05T06:26:03.187Z,88.30
2024-01-05T06:28:29.567Z,89.45
2024-01-05T06:30:56.448Z,88.67
2024-01-05T06:33:23.032Z,88.12
2024-01-05T06:35:49.743Z,88.31
2024-01-05T06:38:16.578Z,89.28
2024-01-05T06:40:43.184Z,88.52
2024-01-05T06:43:09.513Z,88.98
2024-01-05T06:45:35.872Z,88.78
2024-01-05T06:48:02.821Z,88.92
2024-01-05T06:50:29.441Z,89.53
2024-01-05T06:52:56.286Z,90.04
2024-01-05T06:55:23.002Z,88.80
2024-01-05T06:57:49.776Z,89.85
2024-01-05T07:00:16.297Z,89.25
2024-01-05T07:02:43.180Z,88.22
2024-01-05T07:05:09.635Z,88.56
2024-01-05T07:07:35.977Z,88.20
2024-01-05T07:10:02.670Z,89.42
2024-01-05T07:12:29.048Z,88.99
2024-01-05T07:14:55.384Z,89.40
2024-01-05T07:17:22.268Z,88.59
2024-01-05T07:19:48.611Z,87.62
2024-01-05T07:22:14.919Z,87.25
2024-01-05T07:24:41.501Z,88.15
2024-01-05T07:27:08.010Z,88.17
2024-01-05T07:29:34.801Z,87.86
2024-01-05T07:32:01.103Z,88.78
2024-01-05T07:34:28.280Z,88.12
2024-01-05T07:36:54.636Z,89.73
2024-01-05T07:39:21.318Z,89.74
2024-01-05T07:41:48.533Z,89.82
2024-01-05T07:44:14.908Z,88.29
2024-01-05T07:46:42.383Z,88.34
2024-01-05T07:49:09.157Z,87.92
2024-01-05T07:51:37.986Z,88.19
2024-01-05T07:54:04.919Z,88.51
2024-01-05T07:56:31.687Z,87.59
2024-01-05T07:58:58.370Z,88.75
2024-01-05T08:01:24.694Z,88.45
2024-01-05T08:03:51.271Z,88.62
2024-01-05T08:06:18.558Z,88.59
2024-01-05T08:08:46.492Z,87.74
2024-01-05T08:11:13.187Z,88.70
2024-01-05T08:13:40.177Z,88.99
2024-01-05T08:16:07.379Z,87.91
2024-01-05T08:18:33.908Z,88.49
2024-01-05T08:21:00.742Z,87.57
2024-01-05T08:23:27.156Z,88.82
2024-01-05T08:25:53.852Z,88.65
2024-01-05T08:28:20.207Z,88.65
2024-01-05T08:30:47.056Z,88.50
2024-01-05T08:33:13.583Z,89.54
2024-01-05T08:35:40.198Z,89.30
2024-01-05T08:38:06.543Z,88.77
2024-01-05T08:40:33.270Z,89.09
2024-01-05T08:42:59.571Z,88.81
2024-01-05T08:45:26.536Z,89.50
2024-01-05T08:47:54.238Z,88.68
2024-01-05T08:50:20.762Z,88.90
2024-01-05T08:52:47.210Z,88.48
2024-01-05T08:55:17.145Z,88.53
2024-01-05T08:57:44.389Z,88.90
2024-01-05T09:00:13.540Z,88.50
2024-01-05T09:02:40.144Z,89.23
2024-01-05T09:05:07.031Z,87.46
2024-01-05T09:07:35.394Z,88.87
2024-01-05T09:10:03.590Z,87.99
2024-01-05T09:12:29.982Z,88.74
2024-01-05T09:14:56.677Z,86.98
2024-01-05T09:17:22.946Z,87.36
2024-01-05T09:19:49.723Z,88.62
2024-01-05T09:22:16.291Z,87.73
2024-01-05T09:24:43.011Z,86.87
2024-01-05T09:27:09.361Z,86.61
2024-01-05T09:29:36.108Z,87.32
2024-01-05T09:32:02.457Z,86.95
2024-01-05T09:34:29.100Z,86.97
2024-01-05T09:36:55.707Z,87.55
2024-01-05T09:39:22.504Z,89.47
2024-01-05T09:41:49.478Z,87.62
2024-01-05T09:44:17.141Z,87.97
2024-01-05T09:46:44.033Z,88.09
2024-01-05T09:49:10.662Z,87.21
2024-01-05T09:51:37.950Z,86.73
2024-01-05T09:54:04.498Z,86.36
2024-01-05T09:56:31.992Z,86.96
2024-01-05T09:58:58.721Z,87.13
2024-01-05T10:01:26.927Z,86.78
2024-01-05T10:03:57.215Z,86.62
2024-01-05T10:06:24.220Z,85.94
2024-01-05T10:08:57.819Z,87.19
2024-01-05T10:11:38.380Z,85.06
2024-01-05T10:14:08.524Z,86.15
2024-01-05T10:16:41.476Z,85.04
2024-01-05T10:19:16.227Z,84.64
2024-01-05T10:21:43.876Z,85.35
2024-01-05T10:24:21.976Z,84.91
2024-01-05T10:27:08.526Z,85.78
2024-01-05T10:29:37.232Z,87.66
2024-01-05T10:32:11.748Z,84.18
2024-01-05T10:34:38.406Z,85.80
2024-01-05T10:37:05.831Z,83.47
2024-01-05T10:39:33.198Z,84.07
2024-01-05T10:42:19.023Z,84.29
2024-01-05T10:44:46.912Z,85.06
2024-01-05T10:47:16.455Z,86.72
2024-01-05T10:49:52.728Z,85.36
2024-01-05T10:52:23.514Z,85.62
2024-01-05T10:54:51.270Z,85.04
2024-01-05T10:57:19.906Z,86.09
2024-01-05T10:59:46.740Z,84.41
2024-01-05T11:02:22.761Z,85.31
2024-01-05T11:04:55.815Z,84.89
2024-01-05T11:07:24.346Z,84.85
2024-01-05T11:09:54.250Z,84.70
2024-01-05T11:12:29.201Z,85.21
2024-01-05T11:15:08.868Z,86.11
2024-01-05T11:17:41.341Z,85.89
2024-01-05T11:20:12.110Z,85.06
2024-01-05T11:22:39.872Z,85.21
2024-01-05T11:25:06.530Z,86.93
2024-01-05T11:27:34.406Z,84.35
2024-01-05T11:30:01.771Z,83.82
2024-01-05T11:32:39.264Z,84.84
2024-01-05T11:35:18.349Z,86.56
2024-01-05T11:37:44.993Z,85.55
2024-01-05T11:40:27.263Z,86.79
2024-01-05T11:42:53.926Z,85.00
2024-01-05T11:45:39.408Z,86.91
2024-01-05T11:48:06.434Z,85.80
2024-01-05T11:50:34.710Z,86.42
2024-01-05T11:53:17.643Z,84.69
2024-01-05T11:55:54.244Z,84.68
2024-01-05T11:58:24.215Z,86.65
2024-01-05T12:00:51.291Z,85.18
2024-01-05T12:03:19.262Z,86.90
2024-01-05T12:05:50.715Z,86.96
2024-01-05T12:08:17.916Z,86.88
2024-01-05T12:10:44.242Z,86.57
2024-01-05T12:13:10.583Z,85.41
2024-01-05T12:15:42.210Z,85.13
2024-01-05T12:18:19.931Z,83.96
2024-01-05T12:20:55.118Z,84.65
2024-01-05T12:23:22.009Z,86.89
2024-01-05T12:26:05.118Z,85.87
2024-01-05T12:28:32.226Z,85.46
2024-01-05T12:31:02.640Z,84.91
2024-01-05T12:33:30.337Z,85.90
2024-01-05T12:35:57.289Z,85.42
2024-01-05T12:38:25.075Z,87.14
2024-01-05T12:40:52.219Z,85.50
2024-01-05T12:43:20.147Z,86.47
2024-01-05T12:45:50.134Z,86.29
2024-01-05T12:48:16.992Z,85.35
2024-01-05T12:50:43.840Z,86.61
2024-01-05T12:53:22.730Z,86.24
2024-01-05T12:55:49.081Z,87.60
2024-01-05T12:58:15.422Z,85.93
2024-01-05T13:00:43.904Z,85.81
2024-01-05T13:03:17.211Z,86.22
2024-01-05T13:05:44.309Z,86.77
2024-01-05T13:08:10.839Z,86.74
2024-01-05T13:10:40.806Z,85.77
2024-01-05T13:13:07.638Z,86.48
2024-01-05T13:15:34.512Z,86.54
2024-01-05T13:18:01.846Z,86.08
2024-01-05T13:20:28.336Z,85.73
2024-01-05T13:23:01.547Z,86.98
2024-01-05T13:25:27.899Z,88.26
2024-01-05T13:27:55.213Z,87.31
2024-01-05T13:30:21.719Z,87.78
2024-01-05T13:32:50.027Z,88.59
2024-01-05T13:35:17.017Z,89.08
2024-01-05T13:37:44.413Z,88.88
2024-01-05T13:40:11.401Z,89.78
2024-01-05T13:42:37.796Z,89.80
2024-01-05T13:45:06.890Z,90.44
2024-01-05T13:47:36.254Z,88.82
2024-01-05T13:50:03.827Z,89.50
2024-01-05T13:52:30.471Z,88.72
2024-01-05T13:54:57.467Z,90.35
2024-01-05T13:57:24.034Z,90.05
2024-01-05T13:59:51.395Z,89.20
2024-01-05T14:02:21.585Z,89.18
2024-01-05T14:04:49.104Z,90.55
2024-01-05T14:07:16.291Z,90.05
2024-01-05T14:09:43.036Z,89.66
2024-01-05T14:12:10.143Z,89.56
2024-01-05T14:14:36.554Z,89.91
2024-01-05T14:17:04.119Z,88.98
2024-01-05T14:19:30.791Z,89.12
2024-01-05T14:21:58.525Z,89.35
2024-01-05T14:24:27.603Z,89.37
2024-01-05T14:26:54.332Z,89.36
2024-01-05T14:29:21.487Z,89.96
2024-01-05T14:31:48.876Z,88.54
2024-01-05T14:34:15.657Z,88.85
2024-01-05T14:36:42.305Z,88.58
2024-01-05T14:39:11.074Z,87.85
2024-01-05T14:41:37.526Z,88.47
2024-01-05T14:44:04.757Z,87.44
2024-01-05T14:46:31.238Z,86.98
2024-01-05T14:48:58.422Z,86.70
2024-01-05T14:51:24.842Z,88.35
2024-01-05T14:53:51.597Z,87.98
2024-01-05T14:56:17.955Z,88.13
2024-01-05T14:58:47.180Z,88.81
2024-01-05T15:01:15.693Z,88.25
2024-01-05T15:03:42.617Z,88.57
2024-01-05T15:06:10.433Z,89.96
2024-01-05T15:08:37.282Z,89.56
2024-01-05T15:11:04.485Z,88.42
2024-01-05T15:13:31.036Z,89.85
2024-01-05T15:16:01.008Z,89.25
2024-01-05T15:18:27.887Z,89.52
2024-01-05T15:20:55.349Z,90.32
2024-01-05T15:23:21.714Z,90.74
2024-01-05T15:25:48.655Z,90.65
2024-01-05T15:28:15.181Z,89.82
2024-01-05T15:30:41.658Z,89.62
2024-01-05T15:33:08.591Z,90.15
2024-01-05T15:35:36.744Z,90.96
2024-01-05T15:38:06.622Z,90.44
2024-01-05T15:40:34.558Z,90.49
2024-01-05T15:43:02.031Z,90.47
2024-01-05T15:45:32.756Z,91.04
2024-01-05T15:48:00.978Z,91.02
2024-01-05T15:50:28.909Z,90.72
2024-01-05T15:52:55.211Z,90.71
2024-01-05T15:55:23.612Z,91.24
2024-01-05T15:57:50.130Z,90.54
2024-01-05T16:00:17.178Z,90.54
2024-01-05T16:02:43.592Z,91.62
2024-01-05T16:05:10.165Z,90.15
2024-01-05T16:07:36.960Z,91.06
2024-01-05T16:10:05.290Z,90.57
2024-01-05T16:12:31.667Z,90.84
2024-01-05T16:14:58.343Z,90.12
2024-01-05T16:17:24.618Z,89.35
2024-01-05T16:19:51.386Z,90.66
2024-01-05T16:22:17.813Z,90.20
2024-01-05T16:24:44.227Z,91.09
2024-01-05T16:27:10.966Z,90.90
2024-01-05T16:29:37.275Z,90.39
2024-01-05T16:32:04.022Z,91.42
2024-01-05T16:34:30.486Z,90.95
2024-01-05T16:36:57.167Z,91.07
2024-01-05T16:39:23.511Z,90.73
2024-01-05T16:41:50.213Z,90.71
2024-01-05T16:44:16.522Z,91.90
2024-01-05T16:46:43.170Z,89.94
2024-01-05T16:49:09.608Z,90.48
2024-01-05T16:51:36.417Z,90.46
2024-01-05T16:54:02.961Z,90.96
2024-01-05T16:56:30.672Z,90.05
2024-01-05T16:58:57.732Z,89.82
2024-01-05T17:01:25.054Z,90.74
2024-01-05T17:03:52.232Z,89.73
2024-01-05T17:06:20.301Z,90.50
2024-01-05T17:08:47.409Z,90.54
2024-01-05T17:11:14.131Z,90.88
2024-01-05T17:13:40.789Z,90.63
2024-01-05T17:16:11.170Z,90.06
2024-01-05T17:18:38.762Z,90.49
2024-01-05T17:21:06.427Z,90.42
2024-01-05T17:23:33.122Z,90.70
2024-01-05T17:26:01.888Z,89.73
2024-01-05T17:28:29.125Z,90.03
2024-01-05T17:30:56.903Z,90.80
2024-01-05T17:33:23.383Z,90.22
2024-01-05T17:35:50.266Z,90.83
2024-01-05T17:38:18.627Z,91.54
2024-01-05T17:40:45.426Z,91.54
2024-01-05T17:45:44.464Z,90.58
2024-01-05T17:48:11.022Z,90.29
2024-01-05T17:50:37.394Z,90.92
2024-01-05T17:53:04.304Z,89.60
2024-01-05T17:55:30.622Z,90.82
2024-01-05T17:57:58.164Z,91.30
2024-01-05T18:00:24.752Z,89.65
2024-01-05T18:02:51.516Z,90.27
2024-01-05T18:05:17.845Z,90.55
2024-01-05T18:07:44.684Z,91.46
2024-01-05T18:10:11.293Z,90.39
2024-01-05T18:12:38.595Z,90.91
2024-01-05T18:15:05.647Z,90.15
2024-01-05T18:17:32.060Z,90.93
2024-01-05T18:19:58.869Z,90.73
2024-01-05T18:22:25.257Z,89.65
2024-01-05T18:24:51.931Z,90.93
2024-01-05T18:27:18.452Z,89.88
2024-01-05T18:29:45.141Z,90.63
2024-01-05T18:32:11.828Z,91.00
2024-01-05T18:34:38.821Z,91.52
2024-01-05T18:37:05.166Z,91.82
2024-01-05T18:39:31.982Z,90.47
2024-01-05T18:41:58.606Z,90.70
2024-01-05T18:44:24.943Z,90.53
2024-01-05T18:46:53.297Z,90.71
2024-01-05T18:49:20.059Z,90.31
2024-01-05T18:51:46.915Z,90.04
2024-01-05T18:54:13.703Z,90.37
2024-01-05T18:56:40.289Z,90.91
2024-01-05T18:59:06.980Z,90.56
2024-01-05T19:01:33.534Z,91.19
2024-01-05T19:04:00.888Z,91.21
2024-01-05T19:06:27.540Z,90.95
2024-01-05T19:08:54.424Z,91.67
2024-01-05T19:11:21.000Z,89.43
2024-01-05T19:13:47.756Z,89.99
2024-01-05T19:16:14.099Z,89.99
2024-01-05T19:18:41.105Z,90.53
2024-01-05T19:21:07.717Z,90.39
2024-01-05T19:23:34.992Z,89.43
2024-01-05T19:26:02.496Z,90.63
2024-01-05T19:28:29.214Z,90.70
2024-01-05T19:30:56.249Z,90.59
2024-01-05T19:33:22.816Z,90.41
2024-01-05T19:35:49.924Z,90.49
2024-01-05T19:38:16.837Z,90.25
2024-01-05T19:40:44.737Z,90.87
2024-01-05T19:43:12.238Z,90.02
2024-01-05T19:45:38.682Z,90.39
2024-01-05T19:48:06.237Z,90.53
2024-01-05T19:50:32.856Z,91.33
2024-01-05T19:53:02.075Z,90.73
2024-01-05T19:55:28.634Z,91.32
2024-01-05T19:57:55.427Z,90.95
2024-01-05T20:00:22.361Z,90.31
2024-01-05T20:02:49.263Z,91.27
2024-01-05T20:05:15.582Z,91.19
2024-01-05T20:07:41.902Z,90.15
2024-01-05T20:10:09.262Z,90.80
2024-01-05T20:12:36.451Z,91.05
2024-01-05T20:15:03.014Z,90.75
2024-01-05T20:17:29.997Z,89.95
2024-01-05T20:19:56.828Z,89.75
2024-01-05T20:22:24.780Z,90.12
2024-01-05T20:24:51.253Z,90.96
2024-01-05T20:27:17.655Z,91.46
2024-01-05T20:29:46.255Z,91.42
2024-01-05T20:32:13.482Z,91.15
2024-01-05T20:34:40.336Z,90.62
2024-01-05T20:37:06.785Z,91.38
2024-01-05T20:39:33.186Z,91.05
2024-01-05T20:42:00.157Z,91.13
2024-01-05T20:44:26.461Z,90.66
2024-01-05T20:46:53.213Z,90.62
2024-01-05T20:49:19.880Z,90.43
2024-01-05T20:51:47.496Z,90.47
2024-01-05T20:54:14.296Z,90.07
2024-01-05T20:56:41.138Z,90.05
2024-01-05T20:59:07.689Z,91.04
2024-01-05T21:01:34.438Z,90.05
2024-01-05T21:04:00.827Z,91.10
2024-01-05T21:06:27.698Z,90.02
2024-01-05T21:08:54.049Z,89.67
2024-01-05T21:11:22.436Z,89.81
2024-01-05T21:13:48.907Z,90.55
2024-01-05T21:16:16.153Z,90.38
2024-01-05T21:18:42.518Z,90.04
2024-01-05T21:21:09.427Z,91.02
2024-01-05T21:23:35.719Z,90.78
2024-01-05T21:26:06.253Z,90.84
2024-01-05T21:28:32.909Z,90.71
2024-01-05T21:30:59.960Z,90.62
2024-01-05T21:33:26.455Z,89.40
2024-01-05T21:35:53.844Z,90.04
2024-01-05T21:38:20.513Z,89.60
2024-01-05T21:40:47.945Z,90.84
2024-01-05T21:43:14.596Z,89.63
2024-01-05T21:45:44.056Z,89.79
2024-01-05T21:48:10.560Z,90.74
2024-01-05T21:50:37.201Z,90.18
2024-01-05T21:53:03.991Z,90.83
2024-01-05T21:55:30.792Z,90.99
2024-01-05T21:57:57.234Z,90.42
2024-01-05T22:00:23.682Z,90.19
2024-01-05T22:02:51.236Z,90.10
2024-01-05T22:05:17.599Z,89.86
2024-01-05T22:07:44.437Z,90.71
2024-01-05T22:10:12.716Z,90.78
2024-01-05T22:12:39.097Z,91.20
2024-01-05T22:15:06.376Z,90.94
2024-01-05T22:17:34.078Z,89.77
2024-01-05T22:20:00.719Z,89.40
2024-01-05T22:22:28.046Z,90.46
2024-01-05T22:24:54.858Z,90.86
2024-01-05T22:27:21.191Z,89.92
2024-01-05T22:29:47.579Z,90.54
2024-01-05T22:32:14.325Z,89.86
2024-01-05T22:34:41.991Z,90.21
2024-01-05T22:37:08.852Z,89.98
2024-01-05T22:39:36.893Z,90.68
2024-01-05T22:42:03.643Z,90.53
2024-01-05T22:44:29.935Z,90.96
2024-01-05T22:46:56.549Z,89.99
2024-01-05T22:49:22.994Z,89.33
2024-01-05T22:51:49.969Z,90.09
2024-01-05T22:54:16.397Z,90.13
2024-01-05T22:56:43.082Z,89.78
2024-01-05T22:59:09.736Z,90.84
2024-01-05T23:01:36.309Z,90.77
2024-01-05T23:04:03.218Z,91.13
2024-01-05T23:06:30.385Z,91.01
2024-01-05T23:08:57.126Z,90.00
2024-01-05T23:11:23.786Z,89.89
2024-01-05T23:13:50.324Z,91.02
2024-01-05T23:16:16.870Z,88.92
2024-01-05T23:18:43.428Z,89.84
2024-01-05T23:21:10.250Z,90.20
2024-01-05T23:23:37.846Z,90.65
2024-01-05T23:26:05.132Z,89.70
2024-01-05T23:28:31.909Z,89.44
2024-01-05T23:30:58.327Z,90.68
2024-01-05T23:33:25.218Z,89.74
2024-01-05T23:35:52.096Z,89.77
2024-01-05T23:38:18.786Z,88.93
2024-01-05T23:40:45.136Z,89.98
2024-01-05T23:43:11.443Z,89.63
2024-01-05T23:45:38.193Z,89.16
2024-01-05T23:48:05.299Z,89.79
2024-01-05T23:50:32.192Z,88.85
2024-01-05T23:53:00.529Z,88.49
2024-01-05T23:55:28.528Z,89.09
2024-01-05T23:57:55.113Z,89.97
